createdAt,value
2022-12-25T00:01:18.322Z,16.73
2022-12-25T00:03:45.564Z,22.85
2022-12-25T00:06:12.354Z,13.68
2022-12-25T00:08:40.155Z,11.60
2022-12-25T00:11:13.551Z,19.10
2022-12-25T00:16:18.778Z,15.82
2022-12-25T00:18:46.438Z,16.40
2022-12-25T00:21:13.970Z,22.67
2022-12-25T00:23:40.855Z,17.70
2022-12-25T00:26:10.997Z,13.05
2022-12-25T00:28:37.562Z,19.05
2022-12-25T00:31:09.007Z,15.80
2022-12-25T00:33:39.852Z,18.10
2022-12-25T00:36:07.728Z,28.30
2022-12-25T00:38:36.348Z,25.55
2022-12-25T00:41:08.502Z,22.42
2022-12-25T00:43:35.116Z,18.75
2022-12-25T00:46:03.861Z,23.95
2022-12-25T00:48:31.473Z,14.02
2022-12-25T00:51:01.764Z,11.55
2022-12-25T00:53:29.320Z,31.33
2022-12-25T00:56:01.070Z,18.08
2022-12-25T00:58:29.926Z,67.30
2022-12-25T01:00:57.283Z,36.75
2022-12-25T01:03:24.569Z,34.05
2022-12-25T01:06:11.040Z,29.83
2022-12-25T01:08:59.737Z,79.25
2022-12-25T01:11:26.685Z,50.45
2022-12-25T01:13:53.294Z,45.72
2022-12-25T01:16:19.902Z,15.73
2022-12-25T01:18:46.800Z,15.23
2022-12-25T01:21:18.154Z,36.20
2022-12-25T01:23:45.099Z,24.10
2022-12-25T01:26:14.197Z,32.08
2022-12-25T01:28:41.291Z,18.55
2022-12-25T01:31:13.587Z,19.50
2022-12-25T01:33:42.269Z,7.57
2022-12-25T01:36:24.000Z,14.80
2022-12-25T01:38:52.047Z,31.17
2022-12-25T01:41:21.441Z,15.32
2022-12-25T01:44:06.292Z,15.63
2022-12-25T01:46:33.253Z,16.65
2022-12-25T01:49:08.336Z,28.58
2022-12-25T01:51:34.917Z,10.95
2022-12-25T01:54:05.988Z,7.78
2022-12-25T01:56:35.225Z,9.27
2022-12-25T01:59:02.914Z,28.35
2022-12-25T02:01:29.725Z,15.77
2022-12-25T02:04:06.720Z,17.38
2022-12-25T02:06:35.240Z,20.75
2022-12-25T02:09:02.001Z,22.15
2022-12-25T02:11:47.064Z,17.23
2022-12-25T02:14:13.728Z,36.88
2022-12-25T02:16:58.017Z,8.82
2022-12-25T02:19:43.792Z,12.00
2022-12-25T02:22:10.392Z,6.75
2022-12-25T02:24:39.609Z,5.43
2022-12-25T02:27:26.449Z,20.27
2022-12-25T02:30:07.140Z,6.28
2022-12-25T02:33:17.001Z,9.55
2022-12-25T02:35:50.946Z,45.75
2022-12-25T02:38:31.220Z,9.90
2022-12-25T02:41:02.221Z,8.43
2022-12-25T02:43:52.804Z,16.98
2022-12-25T02:46:41.915Z,15.32
2022-12-25T02:49:38.254Z,7.45
2022-12-25T02:52:37.720Z,10.73
2022-12-25T02:55:30.756Z,7.03
2022-12-25T02:58:21.278Z,8.83
2022-12-25T03:01:09.130Z,7.82
2022-12-25T03:03:59.206Z,6.13
2022-12-25T03:06:44.280Z,4.25
2022-12-25T03:09:38.773Z,4.85
2022-12-25T03:12:37.586Z,6.57
2022-12-25T03:15:25.456Z,6.25
2022-12-25T03:17:52.681Z,5.28
2022-12-25T03:20:37.688Z,4.40
2022-12-25T03:23:22.908Z,7.50
2022-12-25T03:26:08.045Z,5.93
2022-12-25T03:28:34.649Z,6.10
2022-12-25T03:31:13.471Z,8.43
2022-12-25T03:34:40.246Z,7.28
2022-12-25T03:37:18.704Z,5.85
2022-12-25T03:39:56.578Z,6.20
2022-12-25T03:42:47.173Z,6.63
2022-12-25T03:45:50.475Z,5.10
2022-12-25T03:48:36.652Z,7.63
2022-12-25T03:51:28.661Z,14.02
2022-12-25T03:54:19.550Z,5.45
2022-12-25T03:57:05.110Z,6.35
2022-12-25T03:59:50.322Z,4.38
2022-12-25T04:02:35.637Z,3.85
2022-12-25T04:05:20.874Z,4.00
2022-12-25T04:08:05.910Z,8.27
2022-12-25T04:10:51.277Z,6.05
2022-12-25T04:13:36.395Z,5.47
2022-12-25T04:16:21.748Z,4.80
2022-12-25T04:19:07.022Z,8.38
2022-12-25T04:21:52.528Z,8.00
2022-12-25T04:24:51.355Z,6.13
2022-12-25T04:27:36.285Z,6.18
2022-12-25T04:30:21.517Z,7.10
2022-12-25T04:33:06.758Z,5.40
2022-12-25T04:35:51.855Z,7.15
2022-12-25T04:38:20.953Z,9.15
2022-12-25T04:40:47.621Z,10.48
2022-12-25T04:43:14.229Z,8.57
2022-12-25T04:45:40.762Z,10.30
2022-12-25T04:48:07.384Z,9.82
2022-12-25T04:50:33.992Z,10.25
2022-12-25T04:53:00.694Z,15.88
2022-12-25T04:55:27.329Z,12.18
2022-12-25T04:57:53.948Z,8.82
2022-12-25T05:00:20.572Z,8.27
2022-12-25T05:02:47.289Z,12.15
2022-12-25T05:05:14.057Z,9.63
2022-12-25T05:07:40.596Z,8.80
2022-12-25T05:10:07.703Z,9.57
2022-12-25T05:12:34.247Z,30.58
2022-12-25T05:15:00.901Z,32.50
2022-12-25T05:17:27.594Z,30.23
2022-12-25T05:19:54.189Z,35.55
2022-12-25T05:22:20.790Z,37.40
2022-12-25T05:24:47.394Z,26.60
2022-12-25T05:27:15.034Z,22.63
2022-12-25T05:29:41.625Z,29.98
2022-12-25T05:32:08.299Z,30.40
2022-12-25T05:34:34.898Z,27.13
2022-12-25T05:37:01.481Z,21.02
2022-12-25T05:39:28.113Z,25.63
2022-12-25T05:41:54.748Z,21.77
2022-12-25T05:44:21.809Z,37.42
2022-12-25T05:46:48.567Z,73.55
2022-12-25T05:49:15.311Z,50.97
2022-12-25T05:51:41.901Z,67.60
2022-12-25T05:54:08.474Z,43.25
2022-12-25T05:56:37.366Z,35.17
2022-12-25T05:59:03.975Z,27.48
2022-12-25T06:01:30.782Z,9.60
2022-12-25T06:03:57.794Z,4.75
2022-12-25T06:06:24.679Z,5.45
2022-12-25T06:08:55.095Z,2.22
2022-12-25T06:11:22.191Z,2.08
2022-12-25T06:13:52.672Z,3.53
2022-12-25T06:16:20.094Z,2.30
2022-12-25T06:18:50.365Z,2.53
2022-12-25T06:21:17.005Z,4.88
2022-12-25T06:23:44.151Z,2.80
2022-12-25T06:26:14.280Z,2.78
2022-12-25T06:28:41.407Z,3.97
2022-12-25T06:31:13.561Z,6.93
2022-12-25T06:33:40.280Z,4.00
2022-12-25T06:36:11.279Z,5.95
2022-12-25T06:38:38.340Z,5.10
2022-12-25T06:41:13.368Z,4.22
2022-12-25T06:43:39.980Z,4.53
2022-12-25T06:46:09.931Z,4.43
2022-12-25T06:48:38.440Z,3.78
2022-12-25T06:51:06.061Z,3.08
2022-12-25T06:53:39.801Z,5.60
2022-12-25T06:56:10.104Z,3.90
2022-12-25T06:58:36.786Z,3.40
2022-12-25T07:01:15.256Z,3.35
2022-12-25T07:03:45.328Z,3.90
2022-12-25T07:06:11.950Z,2.50
2022-12-25T07:08:38.936Z,4.18
2022-12-25T07:11:06.863Z,3.10
2022-12-25T07:13:33.730Z,2.97
2022-12-25T07:16:02.375Z,2.75
2022-12-25T07:18:29.777Z,1.98
2022-12-25T07:20:56.391Z,2.70
2022-12-25T07:23:23.246Z,2.47
2022-12-25T07:26:00.054Z,3.13
2022-12-25T07:28:27.580Z,3.40
2022-12-25T07:30:54.262Z,2.65
2022-12-25T07:33:21.293Z,2.80
2022-12-25T07:35:48.037Z,2.78
2022-12-25T07:38:14.683Z,33.60
2022-12-25T07:40:41.318Z,4.43
2022-12-25T07:43:07.898Z,2.83
2022-12-25T07:45:34.528Z,2.60
2022-12-25T07:48:05.314Z,3.33
2022-12-25T07:50:33.240Z,2.95
2022-12-25T07:52:59.822Z,2.80
2022-12-25T07:55:26.404Z,2.50
2022-12-25T07:57:53.093Z,2.50
2022-12-25T08:00:19.936Z,2.08
2022-12-25T08:02:50.171Z,2.20
2022-12-25T08:05:17.092Z,2.40
2022-12-25T08:07:43.742Z,2.40
2022-12-25T08:10:10.729Z,4.50
2022-12-25T08:12:37.299Z,8.10
2022-12-25T08:15:04.186Z,3.75
2022-12-25T08:17:30.814Z,3.90
2022-12-25T08:19:57.434Z,7.43
2022-12-25T08:22:23.999Z,6.47
2022-12-25T08:24:50.599Z,2.95
2022-12-25T08:27:17.251Z,3.90
2022-12-25T08:29:44.940Z,3.50
2022-12-25T08:32:11.542Z,2.00
2022-12-25T08:34:38.702Z,7.40
2022-12-25T08:37:05.365Z,4.03
2022-12-25T08:39:32.269Z,2.95
2022-12-25T08:41:58.994Z,2.97
2022-12-25T08:44:25.574Z,2.65
2022-12-25T08:46:52.220Z,2.90
2022-12-25T08:49:19.511Z,5.28
2022-12-25T08:51:46.413Z,3.45
2022-12-25T08:54:13.083Z,5.00
2022-12-25T08:56:39.859Z,3.25
2022-12-25T08:59:06.547Z,4.72
2022-12-25T09:01:33.189Z,4.45
2022-12-25T09:03:59.931Z,2.90
2022-12-25T09:06:26.578Z,9.80
2022-12-25T09:08:53.271Z,2.22
2022-12-25T09:11:20.653Z,3.72
2022-12-25T09:13:48.501Z,5.28
2022-12-25T09:16:18.642Z,2.53
2022-12-25T09:18:45.368Z,3.58
2022-12-25T09:21:14.691Z,3.55
2022-12-25T09:23:42.256Z,3.45
2022-12-25T09:26:12.784Z,2.72
2022-12-25T09:28:40.817Z,2.78
2022-12-25T09:31:09.233Z,3.25
2022-12-25T09:33:35.947Z,2.95
2022-12-25T09:36:06.344Z,3.13
2022-12-25T09:38:34.223Z,2.75
2022-12-25T09:41:20.931Z,2.25
2022-12-25T09:44:02.803Z,2.88
2022-12-25T09:46:41.886Z,2.50
2022-12-25T09:49:34.470Z,2.85
2022-12-25T09:52:10.507Z,2.92
2022-12-25T09:54:50.273Z,2.90
2022-12-25T09:57:17.043Z,8.98
2022-12-25T09:59:45.103Z,2.40
2022-12-25T10:02:47.004Z,3.05
2022-12-25T10:05:25.649Z,2.17
2022-12-25T10:07:58.115Z,4.25
2022-12-25T10:10:39.908Z,4.68
2022-12-25T10:13:16.157Z,3.42
2022-12-25T10:16:10.062Z,6.95
2022-12-25T10:19:02.817Z,4.63
2022-12-25T10:21:29.594Z,3.95
2022-12-25T10:24:10.434Z,4.95
2022-12-25T10:26:37.016Z,3.30
2022-12-25T10:29:15.022Z,3.08
2022-12-25T10:31:45.933Z,5.32
2022-12-25T10:34:14.667Z,4.05
2022-12-25T10:36:43.773Z,7.35
2022-12-25T10:39:21.275Z,6.20
2022-12-25T10:42:06.423Z,3.95
2022-12-25T10:44:34.541Z,8.73
2022-12-25T10:47:02.897Z,6.75
2022-12-25T10:49:37.877Z,5.35
2022-12-25T10:52:21.574Z,4.10
2022-12-25T10:54:48.218Z,2.40
2022-12-25T10:57:17.945Z,2.63
2022-12-25T10:59:47.094Z,3.63
2022-12-25T11:02:27.686Z,6.32
2022-12-25T11:05:04.670Z,3.50
2022-12-25T11:07:32.669Z,11.52
2022-12-25T11:10:05.651Z,4.85
2022-12-25T11:15:26.914Z,2.92
2022-12-25T11:17:53.585Z,2.50
2022-12-25T11:20:20.722Z,3.42
2022-12-25T11:22:49.773Z,2.97
2022-12-25T11:25:25.514Z,2.67
2022-12-25T11:28:04.525Z,6.78
2022-12-25T11:30:33.421Z,3.45
2022-12-25T11:33:05.844Z,2.30
2022-12-25T11:35:43.332Z,2.42
2022-12-25T11:38:09.941Z,2.67
2022-12-25T11:40:54.774Z,2.85
2022-12-25T11:43:35.674Z,3.55
2022-12-25T11:46:23.723Z,3.58
2022-12-25T11:48:56.388Z,2.38
2022-12-25T11:51:32.093Z,2.30
2022-12-25T11:54:07.992Z,2.70
2022-12-25T11:56:34.556Z,2.95
2022-12-25T11:59:09.841Z,2.90
2022-12-25T12:01:45.170Z,2.13
2022-12-25T12:04:32.697Z,4.50
2022-12-25T12:07:13.428Z,4.80
2022-12-25T12:09:50.367Z,9.20
2022-12-25T12:12:35.286Z,2.05
2022-12-25T12:15:07.759Z,2.80
2022-12-25T12:17:34.648Z,2.00
2022-12-25T12:20:26.833Z,2.05
2022-12-25T12:22:53.716Z,2.90
2022-12-25T12:25:21.519Z,2.42
2022-12-25T12:27:58.444Z,2.65
2022-12-25T12:30:35.418Z,1.83
2022-12-25T12:33:07.333Z,2.50
2022-12-25T12:35:37.310Z,2.80
2022-12-25T12:38:20.364Z,4.07
2022-12-25T12:41:00.650Z,1.70
2022-12-25T12:43:43.355Z,1.90
2022-12-25T12:46:31.413Z,1.90
2022-12-25T12:49:22.162Z,8.70
2022-12-25T12:51:49.350Z,2.08
2022-12-25T12:54:25.228Z,3.50
2022-12-25T12:57:06.141Z,2.80
2022-12-25T12:59:46.897Z,2.17
2022-12-25T13:02:41.014Z,2.67
2022-12-25T13:05:38.526Z,2.75
2022-12-25T13:08:10.827Z,9.68
2022-12-25T13:10:41.345Z,7.45
2022-12-25T13:13:33.940Z,2.45
2022-12-25T13:16:00.599Z,2.97
2022-12-25T13:18:27.407Z,2.65
2022-12-25T13:21:01.008Z,1.48
2022-12-25T13:23:28.977Z,3.15
2022-12-25T13:25:58.282Z,1.55
2022-12-25T13:28:30.328Z,1.95
2022-12-25T13:31:15.668Z,4.63
2022-12-25T13:33:48.171Z,4.88
2022-12-25T13:36:15.380Z,19.98
2022-12-25T13:38:51.336Z,26.38
2022-12-25T13:41:43.869Z,5.80
2022-12-25T13:44:28.723Z,7.45
2022-12-25T13:46:55.463Z,16.95
2022-12-25T13:49:24.048Z,6.75
2022-12-25T13:51:51.488Z,3.25
2022-12-25T13:54:19.341Z,3.65
2022-12-25T13:56:54.756Z,3.28
2022-12-25T13:59:24.871Z,6.03
2022-12-25T14:01:54.010Z,7.53
2022-12-25T14:04:23.927Z,9.35
2022-12-25T14:06:52.603Z,9.07
2022-12-25T14:09:20.401Z,11.35
2022-12-25T14:11:52.107Z,17.60
2022-12-25T14:14:26.089Z,7.07
2022-12-25T14:16:56.285Z,6.78
2022-12-25T14:19:28.969Z,16.60
2022-12-25T14:22:10.859Z,16.87
2022-12-25T14:24:40.128Z,20.42
2022-12-25T14:27:20.046Z,36.67
2022-12-25T14:29:49.188Z,21.73
2022-12-25T14:32:19.660Z,21.08
2022-12-25T14:34:49.445Z,23.42
2022-12-25T14:37:20.029Z,25.55
2022-12-25T14:40:05.209Z,19.05
2022-12-25T14:42:37.538Z,9.35
2022-12-25T14:45:07.524Z,11.18
2022-12-25T14:47:50.907Z,9.90
2022-12-25T14:50:28.868Z,8.10
2022-12-25T14:52:56.338Z,22.75
2022-12-25T14:55:26.754Z,17.33
2022-12-25T14:58:01.956Z,18.95
2022-12-25T15:00:38.001Z,11.73
2022-12-25T15:03:08.217Z,7.80
2022-12-25T15:05:38.222Z,5.18
2022-12-25T15:08:13.707Z,7.60
2022-12-25T15:13:28.880Z,11.10
2022-12-25T15:16:01.560Z,16.80
2022-12-25T15:18:33.357Z,32.38
2022-12-25T15:21:00.220Z,66.70
2022-12-25T15:23:26.853Z,74.68
2022-12-25T15:25:53.560Z,29.27
2022-12-25T15:28:20.830Z,26.80
2022-12-25T15:30:49.742Z,28.20
2022-12-25T15:33:18.653Z,15.07
2022-12-25T15:35:45.794Z,10.10
2022-12-25T15:38:13.636Z,8.60
2022-12-25T15:40:41.410Z,67.57
2022-12-25T15:43:38.847Z,63.28
2022-12-25T15:45:58.824Z,53.88
2022-12-25T15:48:25.437Z,44.45
2022-12-25T15:50:52.039Z,41.03
2022-12-25T15:53:18.560Z,38.83
2022-12-25T15:55:45.134Z,43.40
2022-12-25T15:58:13.156Z,45.15
2022-12-25T16:00:39.764Z,54.47
2022-12-25T16:03:06.517Z,39.63
2022-12-25T16:05:33.243Z,47.50
2022-12-25T16:07:59.927Z,38.88
2022-12-25T16:10:26.588Z,43.00
2022-12-25T16:12:53.195Z,43.13
2022-12-25T16:15:19.834Z,43.78
2022-12-25T16:17:46.467Z,40.42
2022-12-25T16:20:13.509Z,55.22
2022-12-25T16:22:40.270Z,51.92
2022-12-25T16:25:15.012Z,38.78
2022-12-25T16:27:41.620Z,49.72
2022-12-25T16:30:09.614Z,29.23
2022-12-25T16:32:36.241Z,34.63
2022-12-25T16:35:03.047Z,34.28
2022-12-25T16:37:29.757Z,28.80
2022-12-25T16:39:56.320Z,37.05
2022-12-25T16:42:22.962Z,35.17
2022-12-25T16:44:50.018Z,26.65
2022-12-25T16:47:16.702Z,20.05
2022-12-25T16:49:43.355Z,14.73
2022-12-25T16:52:10.049Z,13.55
2022-12-25T16:54:36.639Z,13.80
2022-12-25T16:57:03.415Z,43.67
2022-12-25T16:59:30.526Z,21.40
2022-12-25T17:01:57.254Z,20.67
2022-12-25T17:04:24.031Z,17.00
2022-12-25T17:06:50.634Z,14.45
2022-12-25T17:09:17.217Z,20.35
2022-12-25T17:11:43.800Z,19.65
2022-12-25T17:14:10.681Z,20.35
2022-12-25T17:16:38.515Z,17.23
2022-12-25T17:19:09.747Z,26.13
2022-12-25T17:21:38.227Z,37.22
2022-12-25T17:24:05.831Z,28.25
2022-12-25T17:26:33.554Z,29.55
2022-12-25T17:29:00.348Z,41.17
2022-12-25T17:31:27.091Z,34.90
2022-12-25T17:33:54.387Z,29.65
2022-12-25T17:36:22.213Z,20.40
2022-12-25T17:38:49.060Z,18.25
2022-12-25T17:41:17.512Z,31.58
2022-12-25T17:43:45.724Z,12.82
2022-12-25T17:46:24.785Z,11.40
2022-12-25T17:48:53.071Z,17.92
2022-12-25T17:51:22.908Z,14.55
2022-12-25T17:53:52.334Z,11.35
2022-12-25T17:56:20.277Z,21.60
2022-12-25T17:58:55.341Z,20.77
2022-12-25T18:01:23.748Z,35.65
2022-12-25T18:03:51.143Z,30.25
2022-12-25T18:06:20.693Z,23.60
2022-12-25T18:08:47.635Z,19.30
2022-12-25T18:11:16.722Z,12.85
2022-12-25T18:13:50.005Z,16.17
2022-12-25T18:18:51.424Z,20.55
2022-12-25T18:21:18.788Z,28.50
2022-12-25T18:23:46.300Z,20.48
2022-12-25T18:26:13.285Z,17.85
2022-12-25T18:28:42.473Z,19.10
2022-12-25T18:31:14.900Z,17.15
2022-12-25T18:33:43.958Z,17.08
2022-12-25T18:36:13.337Z,13.65
2022-12-25T18:38:39.955Z,11.35
2022-12-25T18:41:08.332Z,10.88
2022-12-25T18:43:53.693Z,21.33
2022-12-25T18:46:24.420Z,12.85
2022-12-25T18:48:51.903Z,13.00
2022-12-25T18:51:18.825Z,13.35
2022-12-25T18:53:45.674Z,14.20
2022-12-25T18:56:17.911Z,18.95
2022-12-25T18:58:45.708Z,24.02
2022-12-25T19:01:18.056Z,15.50
2022-12-25T19:03:46.636Z,14.33
2022-12-25T19:06:25.151Z,12.15
2022-12-25T19:08:52.345Z,13.75
2022-12-25T19:11:20.206Z,13.85
2022-12-25T19:13:47.694Z,22.85
2022-12-25T19:16:15.065Z,20.83
2022-12-25T19:18:42.563Z,15.93
2022-12-25T19:21:09.846Z,18.17
2022-12-25T19:23:37.966Z,15.23
2022-12-25T19:26:06.135Z,17.50
2022-12-25T19:28:33.108Z,15.88
2022-12-25T19:31:01.170Z,11.82
2022-12-25T19:33:27.867Z,9.20
2022-12-25T19:35:59.961Z,14.23
2022-12-25T19:38:26.576Z,21.33
2022-12-25T19:41:03.780Z,13.20
2022-12-25T19:43:35.926Z,13.07
2022-12-25T19:46:03.563Z,9.90
2022-12-25T19:48:31.829Z,11.02
2022-12-25T19:50:58.783Z,12.02
2022-12-25T19:53:25.804Z,28.30
2022-12-25T19:55:53.601Z,14.50
2022-12-25T19:58:21.808Z,13.98
2022-12-25T20:00:59.457Z,14.48
2022-12-25T20:03:26.593Z,13.73
2022-12-25T20:05:53.343Z,10.55
2022-12-25T20:08:20.088Z,10.38
2022-12-25T20:10:46.820Z,8.23
2022-12-25T20:13:13.435Z,9.95
2022-12-25T20:15:40.140Z,10.02
2022-12-25T20:18:06.816Z,9.25
2022-12-25T20:20:33.407Z,10.82
2022-12-25T20:23:00.000Z,18.13
2022-12-25T20:25:26.647Z,39.38
2022-12-25T20:27:53.472Z,45.85
2022-12-25T20:30:20.096Z,30.85
2022-12-25T20:32:50.564Z,24.10
2022-12-25T20:35:17.544Z,21.40
2022-12-25T20:37:44.103Z,24.52
2022-12-25T20:40:12.948Z,17.48
2022-12-25T20:42:39.562Z,18.67
2022-12-25T20:45:07.639Z,13.57
2022-12-25T20:47:35.228Z,11.40
2022-12-25T20:50:02.151Z,11.52
2022-12-25T20:52:28.871Z,11.43
2022-12-25T20:54:55.467Z,12.45
2022-12-25T20:57:22.078Z,8.32
2022-12-25T20:59:48.697Z,8.85
2022-12-25T21:02:35.535Z,9.93
2022-12-25T21:05:03.877Z,11.48
2022-12-25T21:07:30.990Z,9.75
2022-12-25T21:09:57.800Z,8.80
2022-12-25T21:12:24.410Z,13.88
2022-12-25T21:14:51.104Z,13.88
2022-12-25T21:17:17.910Z,10.65
2022-12-25T21:19:44.511Z,11.60
2022-12-25T21:22:11.096Z,14.02
2022-12-25T21:24:37.690Z,14.25
2022-12-25T21:27:04.357Z,13.35
2022-12-25T21:29:31.174Z,10.27
2022-12-25T21:32:16.300Z,11.73
2022-12-25T21:34:42.867Z,13.38
2022-12-25T21:37:09.516Z,9.90
2022-12-25T21:39:36.192Z,10.80
2022-12-25T21:42:04.692Z,8.48
2022-12-25T21:44:31.380Z,12.52
2022-12-25T21:46:58.097Z,12.80
2022-12-25T21:49:43.310Z,13.68
2022-12-25T21:52:09.959Z,14.02
2022-12-25T21:54:36.832Z,16.85
2022-12-25T21:57:03.907Z,18.17
2022-12-25T21:59:30.487Z,15.13
2022-12-25T22:01:57.188Z,11.20
2022-12-25T22:04:23.961Z,12.40
2022-12-25T22:07:09.739Z,9.60
2022-12-25T22:09:37.197Z,16.85
2022-12-25T22:12:24.452Z,7.97
2022-12-25T22:14:57.909Z,11.50
2022-12-25T22:17:48.516Z,12.68
2022-12-25T22:20:19.517Z,17.98
2022-12-25T22:22:46.200Z,18.02
2022-12-25T22:25:13.763Z,21.10
2022-12-25T22:27:42.078Z,20.63
2022-12-25T22:30:12.799Z,17.17
2022-12-25T22:32:40.049Z,23.23
2022-12-25T22:35:07.629Z,17.73
2022-12-25T22:37:35.919Z,35.10
2022-12-25T22:40:04.139Z,21.65
2022-12-25T22:42:31.104Z,19.77
2022-12-25T22:44:57.756Z,22.95
2022-12-25T22:47:24.432Z,22.65
2022-12-25T22:49:51.160Z,16.15
2022-12-25T22:52:17.901Z,9.35
2022-12-25T22:54:44.538Z,8.48
2022-12-25T22:57:11.089Z,11.88
2022-12-25T22:59:37.826Z,19.05
2022-12-25T23:02:04.563Z,12.43
2022-12-25T23:04:31.280Z,10.25
2022-12-25T23:06:58.281Z,22.00
2022-12-25T23:09:27.862Z,17.08
2022-12-25T23:11:59.349Z,8.70
2022-12-25T23:14:39.012Z,16.20
2022-12-25T23:17:30.362Z,6.90
2022-12-25T23:20:17.639Z,7.40
2022-12-25T23:23:03.546Z,7.22
2022-12-25T23:25:48.849Z,6.15
2022-12-25T23:28:35.649Z,6.35
2022-12-25T23:31:02.327Z,62.17
2022-12-25T23:33:29.013Z,29.60
2022-12-25T23:35:55.607Z,213.00
2022-12-25T23:38:22.275Z,57.30
2022-12-25T23:40:48.837Z,45.00
2022-12-25T23:43:15.470Z,54.15
2022-12-25T23:45:42.095Z,16.73
2022-12-25T23:48:08.687Z,25.98
2022-12-25T23:50:35.281Z,41.78
2022-12-25T23:53:01.840Z,16.42
2022-12-25T23:55:28.492Z,12.73
2022-12-25T23:57:55.086Z,10.05
